createdAt,value
2022-08-17T00:00:05.820Z,99590.50
2022-08-17T00:02:56.310Z,99590.75
2022-08-17T00:05:23.524Z,99585.47
2022-08-17T00:07:50.608Z,99594.47
2022-08-17T00:10:17.782Z,99587.66
2022-08-17T00:12:44.912Z,99589.44
2022-08-17T00:15:13.454Z,99583.53
2022-08-17T00:17:42.852Z,99593.28
2022-08-17T00:20:11.223Z,99590.75
2022-08-17T00:22:38.310Z,99596.00
2022-08-17T00:25:08.192Z,99593.47
2022-08-17T00:27:35.723Z,99593.47
2022-08-17T00:30:05.259Z,99605.84
2022-08-17T00:33:12.248Z,99600.03
2022-08-17T00:35:27.733Z,99606.25
2022-08-17T00:37:55.489Z,99596.69
2022-08-17T00:40:22.461Z,99591.41
2022-08-17T00:42:52.692Z,99591.41
2022-08-17T00:45:20.653Z,99595.84
2022-08-17T00:47:47.922Z,99602.91
2022-08-17T00:50:17.891Z,99598.72
2022-08-17T00:52:53.810Z,99605.84
2022-08-17T00:55:22.294Z,99604.06
2022-08-17T00:57:55.169Z,99601.63
2022-08-17T01:00:28.739Z,99598.44
2022-08-17T01:03:02.589Z,99603.16
2022-08-17T01:05:31.870Z,99594.41
2022-08-17T01:08:02.705Z,99597.03
2022-08-17T01:10:57.263Z,99600.53
2022-08-17T01:13:24.539Z,99602.31
2022-08-17T01:15:58.559Z,99597.19
2022-08-17T01:18:26.341Z,99600.66
2022-08-17T01:20:55.370Z,99592.00
2022-08-17T01:23:25.078Z,99593.84
2022-08-17T01:25:54.852Z,99599.25
2022-08-17T01:28:33.246Z,99600.97
2022-08-17T01:31:10.587Z,99601.81
2022-08-17T01:33:37.719Z,99600.19
2022-08-17T01:36:07.234Z,99596.78
2022-08-17T01:38:35.692Z,99595.91
2022-08-17T01:41:06.952Z,99599.47
2022-08-17T01:43:45.348Z,99596.00
2022-08-17T01:46:17.152Z,99597.03
2022-08-17T01:48:47.496Z,99597.47
2022-08-17T01:51:15.820Z,99601.19
2022-08-17T01:53:47.836Z,99601.25
2022-08-17T01:56:17.661Z,99599.59
2022-08-17T01:58:45.024Z,99591.84
2022-08-17T02:01:17.542Z,99595.41
2022-08-17T02:03:59.209Z,99595.47
2022-08-17T02:06:31.645Z,99590.41
2022-08-17T02:09:16.492Z,99594.13
2022-08-17T02:11:44.770Z,99590.88
2022-08-17T02:14:13.572Z,99602.25
2022-08-17T02:16:41.191Z,99596.97
2022-08-17T02:19:14.202Z,99601.41
2022-08-17T02:21:43.584Z,99602.25
2022-08-17T02:24:13.050Z,99596.97
2022-08-17T02:26:40.180Z,99595.13
2022-08-17T02:29:07.344Z,99590.88
2022-08-17T02:31:35.655Z,99588.34
2022-08-17T02:34:05.021Z,99581.59
2022-08-17T02:36:36.322Z,99586.13
2022-08-17T02:39:06.192Z,99587.06
2022-08-17T02:41:33.489Z,99585.28
2022-08-17T02:46:28.410Z,99591.56
2022-08-17T02:48:55.750Z,99591.63
2022-08-17T02:51:22.782Z,99594.09
2022-08-17T02:53:49.843Z,99600.16
2022-08-17T02:56:16.790Z,99598.31
2022-08-17T02:58:43.993Z,99602.66
2022-08-17T03:01:11.045Z,99606.31
2022-08-17T03:03:38.693Z,99608.13
2022-08-17T03:06:07.649Z,99605.56
2022-08-17T03:08:35.808Z,99601.16
2022-08-17T03:11:02.721Z,99605.56
2022-08-17T03:13:30.825Z,99607.56
2022-08-17T03:15:58.518Z,99612.09
2022-08-17T03:18:27.092Z,99610.41
2022-08-17T03:20:59.460Z,99610.47
2022-08-17T03:23:27.602Z,99611.19
2022-08-17T03:25:57.220Z,99611.13
2022-08-17T03:28:24.831Z,99616.47
2022-08-17T03:30:52.238Z,99613.69
2022-08-17T03:33:19.946Z,99606.63
2022-08-17T03:35:47.136Z,99604.06
2022-08-17T03:38:17.061Z,99606.63
2022-08-17T03:40:57.287Z,99617.03
2022-08-17T03:43:29.391Z,99608.84
2022-08-17T03:46:28.690Z,99610.28
2022-08-17T03:49:24.742Z,99610.63
2022-08-17T03:52:10.713Z,99608.81
2022-08-17T03:54:56.485Z,99619.19
2022-08-17T03:57:23.712Z,99630.75
2022-08-17T03:59:51.102Z,99626.44
2022-08-17T04:02:22.012Z,99627.47
2022-08-17T04:04:51.202Z,99620.47
2022-08-17T04:07:20.810Z,99624.81
2022-08-17T04:09:47.794Z,99623.97
2022-08-17T04:12:19.120Z,99625.66
2022-08-17T04:14:52.776Z,99631.59
2022-08-17T04:17:25.237Z,99628.75
2022-08-17T04:19:53.040Z,99632.94
2022-08-17T04:22:33.265Z,99630.16
2022-08-17T04:25:07.443Z,99632.38
2022-08-17T04:27:34.549Z,99636.38
2022-08-17T04:30:02.020Z,99636.00
2022-08-17T04:33:04.215Z,99639.25
2022-08-17T04:35:21.205Z,99651.69
2022-08-17T04:37:48.509Z,99652.47
2022-08-17T04:40:34.278Z,99657.91
2022-08-17T04:43:22.113Z,99649.25
2022-08-17T04:45:56.296Z,99663.28
2022-08-17T04:48:36.308Z,99652.25
2022-08-17T04:51:28.072Z,99662.06
2022-08-17T04:54:07.820Z,99657.03
2022-08-17T04:56:35.190Z,99652.41
2022-08-17T04:59:05.949Z,99658.22
2022-08-17T05:01:36.205Z,99663.75
2022-08-17T05:04:21.011Z,99669.78
2022-08-17T05:06:55.146Z,99664.66
2022-08-17T05:09:22.123Z,99664.25
2022-08-17T05:11:51.416Z,99661.34
2022-08-17T05:14:18.401Z,99661.13
2022-08-17T05:16:48.251Z,99659.69
2022-08-17T05:19:15.271Z,99653.44
2022-08-17T05:21:42.290Z,99655.75
2022-08-17T05:24:12.834Z,99661.63
2022-08-17T05:26:56.210Z,99664.28
2022-08-17T05:29:23.121Z,99667.03
2022-08-17T05:32:39.083Z,99663.63
2022-08-17T05:35:01.819Z,99664.88
2022-08-17T05:37:28.750Z,99668.38
2022-08-17T05:39:55.863Z,99671.38
2022-08-17T05:42:23.334Z,99677.75
2022-08-17T05:44:50.247Z,99678.88
2022-08-17T05:47:18.376Z,99669.72
2022-08-17T05:49:45.561Z,99676.03
2022-08-17T05:52:20.058Z,99680.91
2022-08-17T05:55:10.131Z,99676.91
2022-08-17T05:57:42.408Z,99685.31
2022-08-17T06:00:19.301Z,99681.66
2022-08-17T06:02:56.446Z,99683.09
2022-08-17T06:05:29.540Z,99690.56
2022-08-17T06:08:04.118Z,99702.59
2022-08-17T06:10:34.000Z,99692.53
2022-08-17T06:13:39.987Z,99697.53
2022-08-17T06:16:31.160Z,99701.56
2022-08-17T06:19:37.500Z,99710.84
2022-08-17T06:22:05.898Z,99708.00
2022-08-17T06:24:42.058Z,99702.69
2022-08-17T06:27:39.929Z,99708.63
2022-08-17T06:30:25.645Z,99707.63
2022-08-17T06:32:55.260Z,99700.00
2022-08-17T06:35:30.048Z,99703.16
2022-08-17T06:38:37.607Z,99707.00
2022-08-17T06:41:31.873Z,99709.34
2022-08-17T06:44:49.647Z,99709.25
2022-08-17T06:47:15.698Z,99709.69
2022-08-17T06:50:01.139Z,99710.66
2022-08-17T06:52:47.294Z,99708.72
2022-08-17T06:55:24.019Z,99708.41
2022-08-17T06:57:54.180Z,99698.88
2022-08-17T07:00:24.210Z,99709.06
2022-08-17T07:02:58.562Z,99703.81
2022-08-17T07:05:38.711Z,99714.88
2022-08-17T07:08:25.316Z,99720.06
2022-08-17T07:10:57.544Z,99710.81
2022-08-17T07:13:30.409Z,99712.28
2022-08-17T07:16:05.028Z,99708.44
2022-08-17T07:18:33.336Z,99717.47
2022-08-17T07:21:15.482Z,99715.53
2022-08-17T07:24:00.932Z,99723.06
2022-08-17T07:26:28.659Z,99721.91
2022-08-17T07:28:58.618Z,99723.28
2022-08-17T07:31:26.640Z,99727.25
2022-08-17T07:34:14.547Z,99727.91
2022-08-17T07:36:42.761Z,99722.00
2022-08-17T07:39:10.838Z,99729.25
2022-08-17T07:41:57.536Z,99721.38
2022-08-17T07:44:26.840Z,99714.84
2022-08-17T07:47:12.733Z,99720.56
2022-08-17T07:49:42.641Z,99710.72
2022-08-17T07:52:50.524Z,99712.19
2022-08-17T07:55:32.018Z,99711.50
2022-08-17T07:58:00.204Z,99715.13
2022-08-17T08:00:32.699Z,99717.22
2022-08-17T08:03:04.408Z,99706.66
2022-08-17T08:05:49.843Z,99713.44
2022-08-17T08:08:23.299Z,99726.53
2022-08-17T08:11:10.727Z,99718.47
2022-08-17T08:13:43.876Z,99713.84
2022-08-17T08:16:29.774Z,99716.75
2022-08-17T08:19:01.729Z,99712.88
2022-08-17T08:21:35.983Z,99705.94
2022-08-17T08:24:21.671Z,99720.50
2022-08-17T08:27:09.579Z,99712.56
2022-08-17T08:29:45.611Z,99727.25
2022-08-17T08:32:37.329Z,99721.31
2022-08-17T08:35:23.000Z,99721.03
2022-08-17T08:38:08.964Z,99721.19
2022-08-17T08:41:13.059Z,99726.63
2022-08-17T08:44:00.850Z,99717.06
2022-08-17T08:46:27.947Z,99716.91
2022-08-17T08:49:12.695Z,99717.88
2022-08-17T08:51:46.239Z,99723.25
2022-08-17T08:54:26.897Z,99734.72
2022-08-17T08:57:24.179Z,99735.50
2022-08-17T08:59:58.313Z,99733.72
2022-08-17T09:02:47.271Z,99732.03
2022-08-17T09:05:32.716Z,99731.06
2022-08-17T09:08:08.896Z,99732.69
2022-08-17T09:11:06.116Z,99730.72
2022-08-17T09:13:54.317Z,99737.63
2022-08-17T09:16:46.237Z,99733.13
2022-08-17T09:19:19.599Z,99736.34
2022-08-17T09:21:55.389Z,99735.81
2022-08-17T09:24:33.966Z,99742.31
2022-08-17T09:27:21.556Z,99735.09
2022-08-17T09:29:52.117Z,99743.06
2022-08-17T09:32:41.876Z,99735.59
2022-08-17T09:35:32.924Z,99735.41
2022-08-17T09:38:22.905Z,99727.31
2022-08-17T09:41:16.198Z,99734.94
2022-08-17T09:44:23.703Z,99735.34
2022-08-17T09:46:56.145Z,99730.44
2022-08-17T09:49:42.796Z,99720.03
2022-08-17T09:52:24.436Z,99723.69
2022-08-17T09:54:52.057Z,99720.75
2022-08-17T09:57:37.569Z,99727.00
2022-08-17T10:00:20.083Z,99729.09
2022-08-17T10:03:34.317Z,99729.94
2022-08-17T10:06:21.742Z,99721.44
2022-08-17T10:09:03.707Z,99735.28
2022-08-17T10:12:01.686Z,99726.91
2022-08-17T10:15:07.827Z,99733.25
2022-08-17T10:17:57.208Z,99724.69
2022-08-17T10:20:39.954Z,99721.00
2022-08-17T10:23:48.335Z,99722.88
2022-08-17T10:26:20.842Z,99721.34
2022-08-17T10:29:12.794Z,99720.31
2022-08-17T10:31:45.608Z,99723.59
2022-08-17T10:34:38.912Z,99712.81
2022-08-17T10:37:30.174Z,99723.28
2022-08-17T10:40:34.388Z,99728.53
2022-08-17T10:43:41.828Z,99731.38
2022-08-17T10:46:30.602Z,99725.75
2022-08-17T10:49:17.226Z,99733.22
2022-08-17T10:51:54.505Z,99730.13
2022-08-17T10:54:24.516Z,99719.81
2022-08-17T10:56:53.795Z,99727.53
2022-08-17T10:59:39.386Z,99722.63
2022-08-17T11:02:33.538Z,99722.38
2022-08-17T11:05:00.447Z,99718.88
2022-08-17T11:08:05.994Z,99716.56
2022-08-17T11:10:38.678Z,99718.72
2022-08-17T11:13:28.157Z,99699.31
2022-08-17T11:16:12.491Z,99726.25
2022-08-17T11:19:05.076Z,99725.72
2022-08-17T11:21:38.644Z,99724.78
2022-08-17T11:24:27.356Z,99731.13
2022-08-17T11:27:19.986Z,99715.22
2022-08-17T11:30:36.055Z,99729.50
2022-08-17T11:33:29.127Z,99725.09
2022-08-17T11:36:06.498Z,99728.00
2022-08-17T11:39:03.755Z,99722.84
2022-08-17T11:41:56.438Z,99718.38
2022-08-17T11:44:37.775Z,99722.56
2022-08-17T11:48:08.915Z,99715.50
2022-08-17T11:51:21.934Z,99722.53
2022-08-17T11:54:21.503Z,99731.50
2022-08-17T11:56:50.563Z,99723.38
2022-08-17T11:59:36.450Z,99726.72
2022-08-17T12:02:29.927Z,99724.03
2022-08-17T12:05:12.017Z,99732.97
2022-08-17T12:07:45.387Z,99736.63
2022-08-17T12:10:16.184Z,99726.66
2022-08-17T12:12:45.444Z,99725.78
2022-08-17T12:15:20.027Z,99733.72
2022-08-17T12:17:54.562Z,99717.50
2022-08-17T12:20:39.666Z,99714.22
2022-08-17T12:23:21.833Z,99734.06
2022-08-17T12:25:56.934Z,99721.88
2022-08-17T12:28:23.935Z,99737.66
2022-08-17T12:30:52.284Z,99745.66
2022-08-17T12:33:25.619Z,99745.81
2022-08-17T12:36:05.000Z,99727.75
2022-08-17T12:38:36.096Z,99731.88
2022-08-17T12:41:25.226Z,99749.34
2022-08-17T12:44:03.393Z,99751.97
2022-08-17T12:46:34.895Z,99756.22
2022-08-17T12:49:26.431Z,99744.34
2022-08-17T12:52:01.493Z,99747.03
2022-08-17T12:54:50.194Z,99742.13
2022-08-17T12:57:24.435Z,99734.50
2022-08-17T12:59:58.943Z,99749.72
2022-08-17T13:02:33.429Z,99735.13
2022-08-17T13:05:01.374Z,99748.97
2022-08-17T13:07:35.134Z,99725.13
2022-08-17T13:10:03.025Z,99729.63
2022-08-17T13:12:33.108Z,99745.66
2022-08-17T13:15:00.358Z,99746.94
2022-08-17T13:17:36.694Z,99759.00
2022-08-17T13:20:05.959Z,99746.19
2022-08-17T13:22:32.884Z,99753.78
2022-08-17T13:25:05.336Z,99730.97
2022-08-17T13:27:33.366Z,99747.66
2022-08-17T13:30:05.616Z,99748.72
2022-08-17T13:32:43.595Z,99744.06
2022-08-17T13:35:41.393Z,99746.22
2022-08-17T13:38:37.454Z,99735.69
2022-08-17T13:41:07.075Z,99737.34
2022-08-17T13:43:45.677Z,99754.13
2022-08-17T13:46:19.777Z,99741.41
2022-08-17T13:48:56.442Z,99740.50
2022-08-17T13:51:27.537Z,99741.31
2022-08-17T13:53:58.145Z,99756.16
2022-08-17T13:56:49.372Z,99744.75
2022-08-17T13:59:52.806Z,99741.09
2022-08-17T14:02:20.818Z,99739.16
2022-08-17T14:04:48.434Z,99743.25
2022-08-17T14:07:16.124Z,99746.22
2022-08-17T14:10:17.363Z,99743.31
2022-08-17T14:12:45.083Z,99739.72
2022-08-17T14:15:14.441Z,99734.16
2022-08-17T14:17:41.454Z,99730.00
2022-08-17T14:20:10.715Z,99736.75
2022-08-17T14:22:40.074Z,99724.59
2022-08-17T14:25:10.396Z,99732.44
2022-08-17T14:27:47.097Z,99748.34
2022-08-17T14:30:22.230Z,99744.22
2022-08-17T14:32:51.665Z,99740.00
2022-08-17T14:35:21.934Z,99736.72
2022-08-17T14:37:49.566Z,99744.03
2022-08-17T14:40:20.388Z,99744.19
2022-08-17T14:42:47.606Z,99738.00
2022-08-17T14:45:29.553Z,99751.78
2022-08-17T14:48:04.571Z,99736.38
2022-08-17T14:50:32.074Z,99748.78
2022-08-17T14:53:03.871Z,99739.44
2022-08-17T14:55:31.179Z,99738.00
2022-08-17T14:57:58.363Z,99739.56
2022-08-17T15:00:26.870Z,99739.19
2022-08-17T15:02:55.648Z,99730.59
2022-08-17T15:05:24.983Z,99740.47
2022-08-17T15:07:55.816Z,99742.28
2022-08-17T15:10:24.753Z,99732.94
2022-08-17T15:12:52.919Z,99729.53
2022-08-17T15:15:19.973Z,99732.22
2022-08-17T15:17:46.826Z,99726.94
2022-08-17T15:20:25.478Z,99723.94
2022-08-17T15:22:56.246Z,99729.63
2022-08-17T15:25:29.341Z,99728.06
2022-08-17T15:27:56.478Z,99730.78
2022-08-17T15:30:24.488Z,99725.69
2022-08-17T15:32:55.153Z,99717.53
2022-08-17T15:35:29.433Z,99733.84
2022-08-17T15:38:06.303Z,99730.69
2022-08-17T15:40:40.657Z,99733.34
2022-08-17T15:43:12.477Z,99733.59
2022-08-17T15:45:40.288Z,99720.50
2022-08-17T15:48:07.609Z,99734.06
2022-08-17T15:50:35.131Z,99728.84
2022-08-17T15:53:03.429Z,99725.19
2022-08-17T15:55:31.646Z,99726.03
2022-08-17T15:57:58.924Z,99722.25
2022-08-17T16:00:28.280Z,99715.97
2022-08-17T16:03:47.108Z,99722.66
2022-08-17T16:05:43.349Z,99727.59
2022-08-17T16:08:11.205Z,99725.41
2022-08-17T16:10:38.551Z,99725.06
2022-08-17T16:13:05.878Z,99724.84
2022-08-17T16:15:47.784Z,99725.31
2022-08-17T16:18:23.789Z,99728.50
2022-08-17T16:20:50.591Z,99731.50
2022-08-17T16:23:20.231Z,99731.50
2022-08-17T16:25:52.721Z,99738.41
2022-08-17T16:28:20.678Z,99740.72
2022-08-17T16:30:47.527Z,99738.03
2022-08-17T16:33:16.622Z,99740.56
2022-08-17T16:35:43.627Z,99744.56
2022-08-17T16:38:10.899Z,99732.56
2022-08-17T16:40:38.157Z,99730.97
2022-08-17T16:43:10.505Z,99728.03
2022-08-17T16:45:40.727Z,99735.41
2022-08-17T16:48:08.744Z,99738.09
2022-08-17T16:50:36.623Z,99728.53
2022-08-17T16:53:10.507Z,99727.78
2022-08-17T16:55:38.089Z,99729.56
2022-08-17T16:58:05.822Z,99737.78
2022-08-17T17:00:33.938Z,99738.25
2022-08-17T17:03:17.767Z,99745.50
2022-08-17T17:06:13.644Z,99746.47
2022-08-17T17:08:57.988Z,99741.47
2022-08-17T17:11:53.241Z,99740.25
2022-08-17T17:14:33.580Z,99736.22
2022-08-17T17:17:25.478Z,99746.16
2022-08-17T17:19:57.629Z,99752.22
2022-08-17T17:22:54.083Z,99745.66
2022-08-17T17:25:28.001Z,99747.16
2022-08-17T17:27:56.189Z,99755.63
2022-08-17T17:31:04.139Z,99750.09
2022-08-17T17:33:42.044Z,99752.50
2022-08-17T17:36:27.442Z,99753.00
2022-08-17T17:39:10.111Z,99766.56
2022-08-17T17:41:56.685Z,99763.69
2022-08-17T17:44:41.229Z,99766.69
2022-08-17T17:47:08.341Z,99767.97
2022-08-17T17:49:46.419Z,99770.53
2022-08-17T17:52:19.638Z,99768.75
2022-08-17T17:54:57.480Z,99764.91
2022-08-17T17:57:30.177Z,99760.56
2022-08-17T18:00:22.167Z,99764.50
2022-08-17T18:03:18.317Z,99763.09
2022-08-17T18:06:08.128Z,99767.22
2022-08-17T18:08:49.466Z,99764.03
2022-08-17T18:11:24.269Z,99759.38
2022-08-17T18:14:29.281Z,99765.38
2022-08-17T18:16:58.859Z,99764.84
2022-08-17T18:19:28.174Z,99765.16
2022-08-17T18:22:04.023Z,99761.75
2022-08-17T18:24:43.582Z,99766.31
2022-08-17T18:27:37.317Z,99776.69
2022-08-17T18:30:28.846Z,99775.28
2022-08-17T18:33:23.160Z,99777.78
2022-08-17T18:35:58.745Z,99774.38
2022-08-17T18:38:33.846Z,99773.38
2022-08-17T18:41:02.206Z,99776.34
2022-08-17T18:43:43.849Z,99777.28
2022-08-17T18:46:35.040Z,99790.75
2022-08-17T18:49:27.843Z,99786.69
2022-08-17T18:52:13.401Z,99779.78
2022-08-17T18:54:40.564Z,99788.78
2022-08-17T18:57:10.826Z,99787.38
2022-08-17T18:59:48.331Z,99792.31
2022-08-17T19:02:28.372Z,99795.06
2022-08-17T19:05:26.700Z,99790.06
2022-08-17T19:07:53.718Z,99794.50
2022-08-17T19:10:46.560Z,99801.06
2022-08-17T19:13:23.904Z,99802.19
2022-08-17T19:16:12.190Z,99804.06
2022-08-17T19:19:06.530Z,99813.16
2022-08-17T19:21:40.369Z,99828.34
2022-08-17T19:24:19.612Z,99826.81
2022-08-17T19:26:54.963Z,99825.66
2022-08-17T19:29:31.862Z,99818.25
2022-08-17T19:32:01.408Z,99812.50
2022-08-17T19:34:34.016Z,99811.16
2022-08-17T19:37:04.047Z,99822.31
2022-08-17T19:39:49.245Z,99822.88
2022-08-17T19:42:42.476Z,99814.41
2022-08-17T19:45:19.709Z,99825.88
2022-08-17T19:48:09.375Z,99825.97
2022-08-17T19:50:57.787Z,99841.13
2022-08-17T19:54:05.460Z,99836.19
2022-08-17T19:57:21.528Z,99840.53
2022-08-17T19:59:59.139Z,99839.69
2022-08-17T20:02:42.022Z,99835.41
2022-08-17T20:05:16.002Z,99829.69
2022-08-17T20:07:59.263Z,99827.47
2022-08-17T20:10:54.370Z,99834.56
2022-08-17T20:13:49.088Z,99828.88
2022-08-17T20:16:17.849Z,99822.47
2022-08-17T20:19:30.689Z,99816.84
2022-08-17T20:22:01.157Z,99817.97
2022-08-17T20:24:48.233Z,99813.09
2022-08-17T20:27:16.778Z,99811.22
2022-08-17T20:29:55.456Z,99811.13
2022-08-17T20:32:28.496Z,99816.34
2022-08-17T20:35:21.525Z,99828.66
2022-08-17T20:37:58.779Z,99827.59
2022-08-17T20:40:28.805Z,99827.53
2022-08-17T20:42:56.955Z,99829.31
2022-08-17T20:45:26.370Z,99831.19
2022-08-17T20:50:53.834Z,99850.19
2022-08-17T20:53:53.552Z,99840.53
2022-08-17T20:56:43.434Z,99831.66
2022-08-17T20:59:30.759Z,99828.16
2022-08-17T21:02:17.733Z,99822.06
2022-08-17T21:05:00.244Z,99828.41
2022-08-17T21:07:42.571Z,99832.91
2022-08-17T21:10:31.010Z,99836.69
2022-08-17T21:13:23.990Z,99825.41
2022-08-17T21:16:10.768Z,99819.84
2022-08-17T21:18:45.759Z,99817.78
2022-08-17T21:21:21.630Z,99818.97
2022-08-17T21:24:00.378Z,99817.31
2022-08-17T21:26:50.610Z,99805.72
2022-08-17T21:29:31.546Z,99813.47
2022-08-17T21:31:59.709Z,99817.78
2022-08-17T21:34:33.213Z,99809.81
2022-08-17T21:37:19.136Z,99820.41
2022-08-17T21:39:52.803Z,99816.91
2022-08-17T21:42:34.603Z,99823.16
2022-08-17T21:45:12.730Z,99832.00
2022-08-17T21:47:43.461Z,99834.00
2022-08-17T21:50:17.568Z,99843.25
2022-08-17T21:52:44.660Z,99849.75
2022-08-17T21:55:20.379Z,99840.25
2022-08-17T21:57:52.784Z,99842.22
2022-08-17T22:00:32.359Z,99827.34
2022-08-17T22:03:01.699Z,99830.19
2022-08-17T22:05:34.884Z,99820.84
2022-08-17T22:08:09.277Z,99822.72
2022-08-17T22:10:45.241Z,99829.06
2022-08-17T22:13:21.538Z,99829.34
2022-08-17T22:15:53.101Z,99824.38
2022-08-17T22:18:25.676Z,99825.41
2022-08-17T22:20:55.134Z,99829.22
2022-08-17T22:23:47.449Z,99827.69
2022-08-17T22:26:17.103Z,99836.63
2022-08-17T22:29:00.530Z,99835.84
2022-08-17T22:31:30.181Z,99818.38
2022-08-17T22:34:00.051Z,99818.38
2022-08-17T22:36:33.115Z,99821.22
2022-08-17T22:39:12.251Z,99818.56
2022-08-17T22:41:54.051Z,99826.59
2022-08-17T22:44:27.442Z,99823.09
2022-08-17T22:47:01.394Z,99824.94
2022-08-17T22:49:38.850Z,99826.72
2022-08-17T22:53:01.818Z,99818.72
2022-08-17T22:55:49.344Z,99815.22
2022-08-17T22:58:38.992Z,99816.16
2022-08-17T23:01:39.147Z,99820.72
2022-08-17T23:04:09.260Z,99811.88
2022-08-17T23:06:38.025Z,99814.59
2022-08-17T23:09:06.611Z,99804.19
2022-08-17T23:11:49.089Z,99819.25
2022-08-17T23:14:19.743Z,99816.63
2022-08-17T23:16:47.723Z,99817.50
2022-08-17T23:19:17.130Z,99814.06
2022-08-17T23:21:48.780Z,99814.22
2022-08-17T23:24:21.970Z,99803.72
2022-08-17T23:26:49.377Z,99815.00
2022-08-17T23:29:16.371Z,99803.66
2022-08-17T23:31:43.364Z,99812.50
2022-08-17T23:34:12.937Z,99812.81
2022-08-17T23:36:40.107Z,99811.19
2022-08-17T23:39:07.630Z,99803.25
2022-08-17T23:41:37.459Z,99808.63
2022-08-17T23:44:05.241Z,99810.47
2022-08-17T23:46:32.850Z,99811.41
2022-08-17T23:49:00.621Z,99805.28
2022-08-17T23:51:34.653Z,99810.66
2022-08-17T23:54:12.549Z,99819.56
2022-08-17T23:56:51.419Z,99814.38
2022-08-17T23:59:22.652Z,99818.84
